This is the latest recevied weather packets stored in our database for station/object W9PEM-13. If no packets are shown the sender has not sent any weather packets the latest 1 day(s).
| Time | Temp. | Humidity | Pressure | Rain* | Wind** | Luminosity | Snow |
|---|---|---|---|---|---|---|---|
| 1777986212 | 7.78° C | 53% | 977.6 hPa | 0 mm | 3.13 m/s, 256° | 252 W/m² | - |
| 1777985611 | 7.78° C | 54% | 977.8 hPa | 0 mm | 2.68 m/s, 277° | 110 W/m² | - |
| 1777985011 | 8.33° C | 53% | 978.1 hPa | 0 mm | 2.68 m/s, 233° | 149 W/m² | - |
| 1777984411 | 7.78° C | 53% | 978.1 hPa | 0 mm | 3.58 m/s, 246° | 279 W/m² | - |
| 1777983812 | 7.22° C | 55% | 977.9 hPa | 0 mm | 2.68 m/s, 257° | 110 W/m² | - |
| 1777983211 | 7.22° C | 56% | 977.4 hPa | 0 mm | 2.68 m/s, 247° | 102 W/m² | - |
| 1777982011 | 6.67° C | 57% | 976.7 hPa | 0 mm | 2.24 m/s, 268° | 152 W/m² | - |
| 1777981411 | 5.56° C | 57% | 976.3 hPa | 0 mm | 1.79 m/s, 287° | 75 W/m² | - |
| 1777980812 | 5° C | 60% | 976.5 hPa | 0 mm | 0.45 m/s, 232° | 58 W/m² | - |
| 1777980211 | 5° C | 59% | 976.8 hPa | 0 mm | 1.34 m/s, 248° | 38 W/m² | - |
| 1777979612 | 5° C | 59% | 976.7 hPa | 0 mm | 1.34 m/s, 253° | 21 W/m² | - |
| 1777979011 | 5° C | 58% | 976.6 hPa | 0 mm | 1.34 m/s, 243° | 16 W/m² | - |
| 1777978411 | 5.56° C | 57% | 976.3 hPa | 0 mm | 1.34 m/s, 245° | 9 W/m² | - |
| 1777977811 | 5.56° C | 57% | 976.3 hPa | 0 mm | 1.34 m/s, 242° | 3 W/m² | - |
| 1777977211 | 6.11° C | 56% | 976.1 hPa | 0 mm | 1.34 m/s, 252° | 1 W/m² | - |
| 1777976612 | 6.11° C | 55% | 976 hPa | 0 mm | 1.79 m/s, 277° | 0 W/m² | - |
| 1777976011 | 6.11° C | 56% | 975.9 hPa | 0 mm | 1.34 m/s, 245° | 0 W/m² | - |
| 1777975412 | 6.67° C | 54% | 975.7 hPa | 0 mm | 0.89 m/s, 120° | 0 W/m² | - |
| 1777974811 | 6.67° C | 54% | 975.8 hPa | 0 mm | 0.89 m/s, 0° | 0 W/m² | - |
| 1777974212 | 6.67° C | 53% | 975.9 hPa | 0 mm | 0.45 m/s, 272° | 0 W/m² | - |
| 1777973611 | 7.22° C | 52% | 975.9 hPa | 0 mm | 0.89 m/s, 266° | 0 W/m² | - |
| 1777973012 | 7.22° C | 53% | 975.6 hPa | 0 mm | 1.34 m/s, 273° | 0 W/m² | - |
| 1777972412 | 7.22° C | 52% | 975.4 hPa | 0 mm | 1.34 m/s, 225° | 0 W/m² | - |
| 1777971811 | 7.22° C | 53% | 975.3 hPa | 0 mm | 2.24 m/s, 273° | 0 W/m² | - |
| 1777971211 | 7.22° C | 51% | 975 hPa | 0 mm | 1.79 m/s, 276° | 0 W/m² | - |
* Rain latest hour (hover to see other rain measurements)
** Current wind speed in m/s (hover to see current wind gust speed)